Time;durP1;ratioP1;P1;durP2;ratioP2;P2;SDS_P1;SDS_P2;PMS_P1;PMS_P2;Temp;Humidity;BMP_temperature;BMP_pressure;BME280_temperature;BME280_humidity;BME280_pressure;Samples;Min_cycle;Max_cycle;Signal;HPM_P1;HPM_P2
2022/02/14 00:00:54;;;;;;;;;;;;;;;7.56;64.08;100074.78;2098080;28;19959;-71
2022/02/14 00:01:57;;;;;;;;;;;;;;;7.52;64.62;100079.31;2097986;28;19932;-71
2022/02/14 00:02:59;;;;;;;;;;;;;;;7.55;64.06;100081.03;2097744;28;43167;-71
2022/02/14 00:04:00;;;;;;;;;;;;;;;7.58;64.11;100076.50;2097111;28;46007;-71
2022/02/14 00:05:03;;;;;;;;;;;;;;;7.57;64.35;100082.75;2097660;28;44045;-71
2022/02/14 00:06:06;;;;;;;;;;;;;;;7.55;64.34;100076.56;2096909;28;45265;-71
2022/02/14 00:07:11;;;;;;;;;;;;;;;7.54;64.63;100080.16;2098842;28;19921;-71
2022/02/14 00:08:13;;;;;;;;;;;;;;;7.53;64.61;100066.88;2098079;28;20741;-71
2022/02/14 00:09:14;;;;;;;;;;;;;;;7.49;64.92;100075.84;2097471;28;46731;-71
2022/02/14 00:10:16;;;;;;;;;;;;;;;7.56;64.68;100069.47;2096910;28;41472;-71
2022/02/14 00:11:17;;;;;;;;;;;;;;;7.58;64.51;100068.50;2097596;28;46582;-71
2022/02/14 00:12:19;;;;;;;;;;;;;;;7.56;64.57;100066.81;2097360;28;41668;-71
2022/02/14 00:13:23;;;;;;;;;;;;;;;7.56;64.59;100064.13;2097339;28;45483;-71
2022/02/14 00:14:27;;;;;;;;;;;;;;;7.55;64.45;100060.59;2097904;28;19925;-71
2022/02/14 00:15:29;;;;;;;;;;;;;;;7.52;64.95;100059.78;2098542;28;20107;-71
2022/02/14 00:16:31;;;;;;;;;;;;;;;7.56;64.68;100059.69;2096658;28;46211;-70
2022/02/14 00:17:35;;;;;;;;;;;;;;;7.55;64.66;100051.72;2097753;28;44732;-71
2022/02/14 00:18:36;;;;;;;;;;;;;;;7.53;65.00;100050.88;2096691;28;45030;-71
2022/02/14 00:19:38;;;;;;;;;;;;;;;7.57;64.09;100042.78;2097742;28;44087;-71
2022/02/14 00:20:39;;;;;;;;;;;;;;;7.57;64.85;100050.78;2097488;28;43093;-71
2022/02/14 00:21:41;;;;;;;;;;;;;;;7.54;65.02;100040.19;2097431;28;44013;-71
2022/02/14 00:22:42;;;;;;;;;;;;;;;7.58;64.58;100043.66;2097411;28;44547;-71
2022/02/14 00:23:44;;;;;;;;;;;;;;;7.55;64.62;100041.06;2097528;28;43904;-71
2022/02/14 00:24:45;;;;;;;;;;;;;;;7.57;64.98;100052.56;2096951;28;46151;-71
2022/02/14 00:25:49;;;;;;;;;;;;;;;7.55;64.62;100041.94;2097611;28;43037;-71
2022/02/14 00:26:57;;;;;;;;;;;;;;;7.65;64.16;100038.13;2096540;28;45645;-71
2022/02/14 00:27:58;;;;;;;;;;;;;;;7.59;64.82;100034.75;2097731;28;44368;-71
2022/02/14 00:29:03;;;;;;;;;;;;;;;7.59;64.69;100027.66;2098061;28;19924;-71
2022/02/14 00:30:06;;;;;;;;;;;;;;;7.59;65.14;100040.06;2097570;28;46441;-71
2022/02/14 00:31:07;;;;;;;;;;;;;;;7.55;65.15;100036.59;2096778;28;43053;-69
2022/02/14 00:32:10;;;;;;;;;;;;;;;7.60;64.47;100028.50;2098314;28;20713;-71
2022/02/14 00:33:12;;;;;;;;;;;;;;;7.65;64.55;100038.13;2098022;28;19928;-71
2022/02/14 00:34:14;;;;;;;;;;;;;;;7.63;65.03;100036.44;2097642;28;45368;-71
2022/02/14 00:35:16;;;;;;;;;;;;;;;7.65;64.65;100022.16;2096736;28;46189;-71
2022/02/14 00:36:20;;;;;;;;;;;;;;;7.69;64.08;100022.06;2098491;28;19921;-71
2022/02/14 00:37:22;;;;;;;;;;;;;;;7.76;64.21;100024.53;2098129;28;19971;-71
2022/02/14 00:38:26;;;;;;;;;;;;;;;7.75;64.11;100024.56;2097546;28;46506;-71
2022/02/14 00:39:29;;;;;;;;;;;;;;;7.76;63.92;100037.84;2098011;28;19924;-71
2022/02/14 00:40:32;;;;;;;;;;;;;;;7.72;64.77;100038.84;2098419;28;20291;-71
2022/02/14 00:41:33;;;;;;;;;;;;;;;7.72;64.82;100036.19;2097276;28;45880;-71
2022/02/14 00:42:37;;;;;;;;;;;;;;;7.75;64.28;100032.56;2097595;28;44024;-71
2022/02/14 00:43:39;;;;;;;;;;;;;;;7.77;64.19;100026.28;2097059;28;45008;-70
2022/02/14 00:44:43;;;;;;;;;;;;;;;7.76;63.94;100034.31;2097473;28;43625;-70
2022/02/14 00:45:45;;;;;;;;;;;;;;;7.74;64.44;100025.50;2095901;28;44085;-71
2022/02/14 00:46:46;;;;;;;;;;;;;;;7.70;64.96;100032.69;2097139;28;45699;-71
2022/02/14 00:47:48;;;;;;;;;;;;;;;7.74;64.31;100031.69;2097134;28;43973;-71
2022/02/14 00:48:49;;;;;;;;;;;;;;;7.80;64.36;100028.00;2097554;28;40912;-71
2022/02/14 00:49:51;;;;;;;;;;;;;;;7.72;64.70;100024.66;2096883;28;43219;-71
2022/02/14 00:50:53;;;;;;;;;;;;;;;7.78;64.50;100019.16;2097251;28;20865;-71
2022/02/14 00:51:56;;;;;;;;;;;;;;;7.74;65.02;100020.16;2096656;28;45226;-71
2022/02/14 00:52:58;;;;;;;;;;;;;;;7.80;64.46;100014.66;2096951;28;45573;-71
2022/02/14 00:54:00;;;;;;;;;;;;;;;7.72;65.29;100019.34;2096826;28;45244;-71
2022/02/14 00:55:02;;;;;;;;;;;;;;;7.70;65.20;100013.16;2097154;28;41828;-71
2022/02/14 00:56:03;;;;;;;;;;;;;;;7.76;64.17;100007.69;2096951;28;45371;-71
2022/02/14 00:57:05;;;;;;;;;;;;;;;7.76;64.55;100018.34;2098217;28;19929;-71
2022/02/14 00:58:08;;;;;;;;;;;;;;;7.84;64.35;100011.91;2097707;28;20022;-71
2022/02/14 00:59:12;;;;;;;;;;;;;;;7.82;64.37;100015.50;2098516;28;19998;-71
2022/02/14 01:00:15;;;;;;;;;;;;;;;7.77;65.17;100015.63;2097420;28;42096;-71
2022/02/14 01:01:17;;;;;;;;;;;;;;;7.77;64.52;100002.31;2097054;28;45393;-71
2022/02/14 01:02:18;;;;;;;;;;;;;;;7.81;64.64;100011.09;2097041;28;39588;-71
2022/02/14 01:03:20;;;;;;;;;;;;;;;7.78;64.85;100013.84;2096126;28;43591;-71
2022/02/14 01:04:22;;;;;;;;;;;;;;;7.82;64.90;100002.16;2097325;28;20055;-71
2022/02/14 01:05:28;;;;;;;;;;;;;;;7.81;64.27;100006.63;2098051;28;19929;-71
2022/02/14 01:06:30;;;;;;;;;;;;;;;7.79;65.02;100010.28;2096723;28;45337;-71
2022/02/14 01:07:33;;;;;;;;;;;;;;;7.90;64.09;99999.31;2097219;28;46506;-69
2022/02/14 01:08:34;;;;;;;;;;;;;;;7.93;64.26;99999.22;2096425;28;43498;-71
2022/02/14 01:09:36;;;;;;;;;;;;;;;7.91;64.14;100001.06;2097370;28;45306;-70
2022/02/14 01:10:38;;;;;;;;;;;;;;;7.91;64.17;99990.41;2097847;28;19925;-71
2022/02/14 01:11:40;;;;;;;;;;;;;;;7.95;63.87;99987.63;2097214;28;43862;-71
2022/02/14 01:12:45;;;;;;;;;;;;;;;7.90;64.35;99994.00;2096841;28;46632;-71
2022/02/14 01:13:47;;;;;;;;;;;;;;;7.87;64.38;99997.59;2097301;28;41858;-71
2022/02/14 01:14:48;;;;;;;;;;;;;;;7.85;64.62;100002.09;2096926;28;44167;-69
2022/02/14 01:15:50;;;;;;;;;;;;;;;7.88;64.72;99980.72;2097229;28;46164;-71
2022/02/14 01:16:51;;;;;;;;;;;;;;;7.91;64.18;99985.94;2096496;28;46394;-69
2022/02/14 01:17:53;;;;;;;;;;;;;;;7.93;64.77;99999.22;2097393;28;45011;-71
2022/02/14 01:18:54;;;;;;;;;;;;;;;7.86;65.40;99978.97;2096420;28;41769;-70
2022/02/14 01:19:56;;;;;;;;;;;;;;;7.89;64.44;99998.44;2096761;28;45646;-71
2022/02/14 01:20:57;;;;;;;;;;;;;;;7.86;65.14;99992.31;2096841;28;45628;-71
2022/02/14 01:21:59;;;;;;;;;;;;;;;7.87;64.49;99989.59;2097683;28;44710;-71
2022/02/14 01:23:00;;;;;;;;;;;;;;;7.90;64.27;99980.66;2096837;28;39205;-71
2022/02/14 01:24:02;;;;;;;;;;;;;;;7.91;64.69;99979.72;2097846;28;19932;-71
2022/02/14 01:25:06;;;;;;;;;;;;;;;7.86;64.67;99979.88;2097033;28;44318;-71
2022/02/14 01:26:07;;;;;;;;;;;;;;;7.97;64.03;99984.91;2097064;28;44008;-71
2022/02/14 01:27:09;;;;;;;;;;;;;;;7.97;64.44;99977.78;2096037;28;41435;-71
2022/02/14 01:28:11;;;;;;;;;;;;;;;7.96;64.51;99976.03;2096700;28;44327;-71
2022/02/14 01:29:12;;;;;;;;;;;;;;;7.94;64.45;99974.31;2096973;28;43811;-71
2022/02/14 01:30:15;;;;;;;;;;;;;;;7.99;64.69;99975.09;2096922;28;46396;-71
2022/02/14 01:31:16;;;;;;;;;;;;;;;7.99;64.18;99967.09;2096478;28;44576;-72
2022/02/14 01:32:22;;;;;;;;;;;;;;;7.99;64.20;99962.63;2097116;28;43047;-71
2022/02/14 01:33:26;;;;;;;;;;;;;;;8.00;64.87;99958.16;2096800;28;44427;-71
2022/02/14 01:34:30;;;;;;;;;;;;;;;8.02;64.20;99970.53;2097191;28;45929;-71
2022/02/14 01:35:31;;;;;;;;;;;;;;;8.01;64.42;99965.25;2096733;28;41392;-71
2022/02/14 01:36:33;;;;;;;;;;;;;;;8.02;63.90;99973.19;2097226;28;44448;-71
2022/02/14 01:37:39;;;;;;;;;;;;;;;8.03;64.37;99958.94;2097909;28;20041;-72
2022/02/14 01:38:40;;;;;;;;;;;;;;;8.06;64.56;99967.75;2097004;28;40303;-71
2022/02/14 01:39:42;;;;;;;;;;;;;;;8.07;64.46;99959.72;2096334;28;20007;-71
2022/02/14 01:40:44;;;;;;;;;;;;;;;8.08;64.16;99965.94;2097825;28;19920;-71
2022/02/14 01:41:45;;;;;;;;;;;;;;;8.06;64.82;99951.75;2096756;28;44360;-71
2022/02/14 01:42:47;;;;;;;;;;;;;;;8.00;64.66;99947.50;2096885;28;41083;-71
2022/02/14 01:43:49;;;;;;;;;;;;;;;7.97;65.22;99960.94;2097029;28;39577;-71
2022/02/14 01:44:53;;;;;;;;;;;;;;;7.95;65.21;99955.63;2096942;28;47068;-71
2022/02/14 01:45:54;;;;;;;;;;;;;;;8.03;64.56;99948.28;2096560;28;43394;-71
2022/02/14 01:46:56;;;;;;;;;;;;;;;8.03;64.33;99950.94;2096868;28;45686;-71
2022/02/14 01:47:57;;;;;;;;;;;;;;;8.07;64.43;99945.53;2096788;28;45665;-71
2022/02/14 01:49:03;;;;;;;;;;;;;;;8.08;64.97;99939.28;2096846;28;45576;-71
2022/02/14 01:50:11;;;;;;;;;;;;;;;8.08;64.89;99942.81;2096540;28;45656;-71
2022/02/14 01:51:13;;;;;;;;;;;;;;;8.10;64.64;99945.44;2096955;28;45663;-71
2022/02/14 01:52:15;;;;;;;;;;;;;;;8.09;64.85;99919.69;2096462;28;44362;-71
2022/02/14 01:53:17;;;;;;;;;;;;;;;8.11;64.49;99942.75;2096513;28;45655;-71
2022/02/14 01:54:19;;;;;;;;;;;;;;;8.16;63.88;99947.94;2096855;28;45088;-71
2022/02/14 01:55:21;;;;;;;;;;;;;;;8.15;64.71;99932.88;2096879;28;43960;-71
2022/02/14 01:56:22;;;;;;;;;;;;;;;8.13;64.83;99943.56;2096207;28;43533;-71
2022/02/14 01:57:24;;;;;;;;;;;;;;;8.14;64.16;99931.09;2097121;28;43913;-71
2022/02/14 01:58:26;;;;;;;;;;;;;;;8.12;64.53;99931.16;2096495;28;46482;-71
2022/02/14 01:59:33;;;;;;;;;;;;;;;8.07;64.89;99930.41;2098120;28;19920;-71
2022/02/14 02:00:34;;;;;;;;;;;;;;;8.06;65.11;99936.66;2096781;28;40401;-71
2022/02/14 02:01:39;;;;;;;;;;;;;;;8.08;65.37;99933.97;2096277;28;45947;-71
2022/02/14 02:02:41;;;;;;;;;;;;;;;8.09;65.22;99920.56;2096386;28;37381;-71
2022/02/14 02:03:43;;;;;;;;;;;;;;;8.07;64.68;99917.06;2096748;28;46833;-71
2022/02/14 02:04:46;;;;;;;;;;;;;;;8.03;64.74;99916.28;2095522;28;45480;-71
2022/02/14 02:05:47;;;;;;;;;;;;;;;8.03;65.08;99918.94;2096647;28;45259;-71
2022/02/14 02:06:49;;;;;;;;;;;;;;;8.12;65.19;99923.16;2096555;28;41225;-71
2022/02/14 02:07:53;;;;;;;;;;;;;;;8.18;64.67;99916.75;2096574;28;45297;-71
2022/02/14 02:08:54;;;;;;;;;;;;;;;8.11;64.64;99912.53;2096362;28;45040;-71
2022/02/14 02:09:56;;;;;;;;;;;;;;;8.13;65.17;99914.25;2097934;28;19929;-71
2022/02/14 02:12:22;;;;;;;;;;;;;;;8.09;64.92;99911.69;2096181;28;44563;-71
2022/02/14 02:12:26;;;;;;;;;;;;;;;8.07;65.64;99911.75;2096807;28;43438;-71
2022/02/14 02:13:28;;;;;;;;;;;;;;;8.04;65.04;99906.53;2097955;28;19953;-71
2022/02/14 02:14:29;;;;;;;;;;;;;;;8.05;65.60;99907.38;2096728;28;45419;-71
2022/02/14 02:15:31;;;;;;;;;;;;;;;8.05;65.14;99910.06;2097486;28;20834;-71
2022/02/14 02:16:33;;;;;;;;;;;;;;;8.01;65.31;99904.78;2096704;28;45781;-71
2022/02/14 02:17:38;;;;;;;;;;;;;;;8.03;65.23;99902.09;2096612;28;43538;-71
2022/02/14 02:18:39;;;;;;;;;;;;;;;8.07;65.09;99894.88;2095875;28;43082;-71
2022/02/14 02:19:41;;;;;;;;;;;;;;;8.09;65.57;99898.38;2096400;28;44059;-70
2022/02/14 02:20:43;;;;;;;;;;;;;;;8.06;65.22;99903.78;2097053;28;43353;-71
2022/02/14 02:21:46;;;;;;;;;;;;;;;8.08;65.36;99896.63;2097233;28;20872;-70
2022/02/14 02:22:49;;;;;;;;;;;;;;;8.11;64.89;99893.84;2096781;28;45700;-71
2022/02/14 02:23:57;;;;;;;;;;;;;;;8.05;65.99;99894.91;2096162;28;45470;-71
2022/02/14 02:24:59;;;;;;;;;;;;;;;8.09;65.22;99896.56;2096431;28;46385;-71
2022/02/14 02:26:00;;;;;;;;;;;;;;;8.11;64.94;99880.53;2096863;28;42085;-71
2022/02/14 02:27:05;;;;;;;;;;;;;;;8.06;65.51;99879.78;2096448;28;44521;-71
2022/02/14 02:28:07;;;;;;;;;;;;;;;8.10;65.44;99879.66;2097058;28;37651;-71
2022/02/14 02:29:10;;;;;;;;;;;;;;;8.16;64.97;99881.28;2098299;28;20479;-71
2022/02/14 02:30:14;;;;;;;;;;;;;;;8.14;65.22;99885.78;2096716;28;45697;-71
2022/02/14 02:31:16;;;;;;;;;;;;;;;8.13;65.79;99874.25;2096578;28;44708;-71
2022/02/14 02:32:18;;;;;;;;;;;;;;;8.16;65.26;99878.59;2095357;28;45488;-71
2022/02/14 02:33:19;;;;;;;;;;;;;;;8.10;65.93;99874.34;2096273;28;45866;-71
2022/02/14 02:34:21;;;;;;;;;;;;;;;8.12;65.33;99868.97;2096544;28;41757;-71
2022/02/14 02:35:23;;;;;;;;;;;;;;;8.16;65.40;99868.81;2096613;28;45365;-71
2022/02/14 02:36:24;;;;;;;;;;;;;;;8.15;65.81;99867.06;2096579;28;44518;-71
2022/02/14 02:37:26;;;;;;;;;;;;;;;8.13;65.92;99863.59;2096545;28;42924;-71
2022/02/14 02:38:27;;;;;;;;;;;;;;;8.13;65.90;99863.59;2096358;28;46683;-71
2022/02/14 02:39:29;;;;;;;;;;;;;;;8.17;65.16;99880.38;2096528;28;43525;-71
2022/02/14 02:40:30;;;;;;;;;;;;;;;8.14;66.05;99873.31;2096127;28;45664;-72
2022/02/14 02:41:32;;;;;;;;;;;;;;;8.11;65.59;99861.88;2095676;28;43438;-71
2022/02/14 02:42:33;;;;;;;;;;;;;;;8.11;65.52;99861.88;2096449;28;45546;-71
2022/02/14 02:43:36;;;;;;;;;;;;;;;8.13;65.91;99852.94;2097587;28;19998;-71
2022/02/14 02:44:39;;;;;;;;;;;;;;;8.14;66.35;99869.78;2096230;28;40946;-71
2022/02/14 02:45:43;;;;;;;;;;;;;;;8.10;66.08;99863.66;2097135;28;19932;-71
2022/02/14 02:46:45;;;;;;;;;;;;;;;8.13;66.36;99868.03;2096186;28;46069;-72
2022/02/14 02:47:47;;;;;;;;;;;;;;;8.11;66.29;99859.19;2096209;28;45289;-71
2022/02/14 02:48:48;;;;;;;;;;;;;;;8.11;66.35;99853.88;2096576;28;45806;-71
2022/02/14 02:49:52;;;;;;;;;;;;;;;8.13;66.20;99846.69;2097546;28;20941;-71
2022/02/14 02:51:02;;;;;;;;;;;;;;;8.13;65.91;99852.03;2096945;28;37896;-71
2022/02/14 02:52:06;;;;;;;;;;;;;;;8.10;66.25;99849.47;2095809;28;46252;-71
2022/02/14 02:53:08;;;;;;;;;;;;;;;8.09;66.28;99853.06;2096407;28;41677;-71
2022/02/14 02:54:10;;;;;;;;;;;;;;;8.10;66.08;99837.00;2096499;28;43686;-71
2022/02/14 02:55:13;;;;;;;;;;;;;;;8.08;66.08;99838.84;2096593;28;36033;-71
2022/02/14 02:56:14;;;;;;;;;;;;;;;8.10;66.71;99844.16;2096631;28;44948;-71
2022/02/14 02:57:18;;;;;;;;;;;;;;;8.10;66.12;99846.81;2095755;28;47876;-71
2022/02/14 02:58:19;;;;;;;;;;;;;;;8.09;66.51;99847.72;2096607;28;43395;-71
2022/02/14 02:59:23;;;;;;;;;;;;;;;8.12;65.97;99850.31;2096189;28;44800;-71
2022/02/14 03:00:25;;;;;;;;;;;;;;;8.14;65.79;99846.66;2096325;28;44851;-71
2022/02/14 03:01:27;;;;;;;;;;;;;;;8.13;65.69;99850.25;2095606;28;43964;-71
2022/02/14 03:02:28;;;;;;;;;;;;;;;8.11;66.78;99846.78;2096578;28;44297;-71
2022/02/14 03:03:30;;;;;;;;;;;;;;;8.15;66.32;99831.56;2096497;28;42952;-71
2022/02/14 03:04:33;;;;;;;;;;;;;;;8.15;65.53;99840.41;2095878;28;45156;-71
2022/02/14 03:05:35;;;;;;;;;;;;;;;8.20;66.02;99843.81;2095968;28;44669;-71
2022/02/14 03:06:38;;;;;;;;;;;;;;;8.14;66.07;99838.66;2096706;28;39530;-71
2022/02/14 03:07:39;;;;;;;;;;;;;;;8.09;66.29;99834.38;2095930;28;46977;-71
2022/02/14 03:08:41;;;;;;;;;;;;;;;8.13;66.08;99839.59;2096274;28;43407;-71
2022/02/14 03:09:42;;;;;;;;;;;;;;;8.12;66.19;99834.31;2096192;28;43729;-71
2022/02/14 03:10:44;;;;;;;;;;;;;;;8.15;65.82;99831.56;2096687;28;43459;-71
2022/02/14 03:11:45;;;;;;;;;;;;;;;8.13;66.00;99836.03;2095909;28;45660;-71
2022/02/14 03:12:47;;;;;;;;;;;;;;;8.10;66.53;99821.00;2096426;28;46580;-71
2022/02/14 03:13:52;;;;;;;;;;;;;;;8.12;66.21;99821.84;2096655;28;41820;-71
2022/02/14 03:14:54;;;;;;;;;;;;;;;8.07;66.65;99826.44;2096548;28;43507;-71
2022/02/14 03:15:55;;;;;;;;;;;;;;;8.06;67.24;99819.38;2096809;28;46345;-71
2022/02/14 03:16:59;;;;;;;;;;;;;;;8.07;66.28;99814.91;2097494;28;42963;-71
2022/02/14 03:18:00;;;;;;;;;;;;;;;8.07;67.15;99814.91;2097405;28;45576;-71
2022/02/14 03:19:03;;;;;;;;;;;;;;;8.07;67.12;99823.75;2098114;28;20710;-71
2022/02/14 03:20:05;;;;;;;;;;;;;;;8.07;66.36;99825.56;2097863;28;42983;-71
2022/02/14 03:21:08;;;;;;;;;;;;;;;8.08;67.11;99816.66;2098924;28;20844;-69
2022/02/14 03:22:09;;;;;;;;;;;;;;;8.05;66.26;99819.41;2097484;28;42064;-69
2022/02/14 03:23:11;;;;;;;;;;;;;;;8.09;66.44;99810.41;2097791;28;46146;-69
2022/02/14 03:24:13;;;;;;;;;;;;;;;8.07;67.01;99809.56;2097230;28;46751;-69
2022/02/14 03:25:17;;;;;;;;;;;;;;;8.02;66.85;99807.03;2098895;28;19928;-69
2022/02/14 03:26:20;;;;;;;;;;;;;;;8.01;66.86;99803.50;2097259;28;46084;-68
2022/02/14 03:27:22;;;;;;;;;;;;;;;8.07;66.28;99809.56;2097711;28;43164;-69
2022/02/14 03:28:23;;;;;;;;;;;;;;;8.13;67.02;99809.38;2096800;28;44362;-69
2022/02/14 03:29:26;;;;;;;;;;;;;;;8.13;67.16;99815.59;2096952;28;45075;-69
2022/02/14 03:30:27;;;;;;;;;;;;;;;8.11;67.09;99813.88;2097315;28;45458;-69
2022/02/14 03:31:29;;;;;;;;;;;;;;;8.11;66.97;99811.22;2097142;28;44410;-69
2022/02/14 03:32:30;;;;;;;;;;;;;;;8.09;67.28;99807.72;2096631;28;44143;-69
2022/02/14 03:33:32;;;;;;;;;;;;;;;8.05;66.97;99806.94;2096706;28;44092;-69
2022/02/14 03:34:33;;;;;;;;;;;;;;;7.99;68.12;99802.69;2097733;28;44484;-70
2022/02/14 03:35:35;;;;;;;;;;;;;;;7.99;68.09;99802.69;2099113;28;19921;-69
2022/02/14 03:36:36;;;;;;;;;;;;;;;8.01;67.51;99800.84;2097592;28;39615;-69
2022/02/14 03:37:38;;;;;;;;;;;;;;;7.96;67.56;99802.78;2097638;28;46443;-69
2022/02/14 03:38:44;;;;;;;;;;;;;;;7.99;67.76;99796.50;2098070;28;19960;-69
2022/02/14 03:39:45;;;;;;;;;;;;;;;8.01;67.62;99786.66;2096683;28;45288;-69
2022/02/14 03:40:50;;;;;;;;;;;;;;;8.00;68.02;99791.13;2097528;28;43111;-71
2022/02/14 03:41:53;;;;;;;;;;;;;;;8.09;67.79;99803.25;2097760;28;45407;-71
2022/02/14 03:42:56;;;;;;;;;;;;;;;8.06;67.44;99786.50;2097715;28;46054;-71
2022/02/14 03:43:58;;;;;;;;;;;;;;;8.05;67.89;99792.75;2098030;28;45389;-71
2022/02/14 03:45:00;;;;;;;;;;;;;;;8.08;67.27;99792.66;2097406;28;45486;-71
2022/02/14 03:46:04;;;;;;;;;;;;;;;8.06;67.41;99786.50;2097615;28;43024;-71
2022/02/14 03:47:05;;;;;;;;;;;;;;;8.08;67.81;99790.00;2097709;28;43183;-71
2022/02/14 03:48:08;;;;;;;;;;;;;;;8.09;67.72;99792.59;2097333;28;46295;-71
2022/02/14 03:49:09;;;;;;;;;;;;;;;8.09;67.67;99794.41;2097534;28;45308;-71
2022/02/14 03:50:11;;;;;;;;;;;;;;;8.09;67.52;99789.06;2097885;28;41708;-70
2022/02/14 03:51:12;;;;;;;;;;;;;;;8.10;67.62;99782.81;2097310;28;41741;-70
2022/02/14 03:52:16;;;;;;;;;;;;;;;8.07;67.89;99786.44;2097828;28;44036;-70
2022/02/14 03:53:20;;;;;;;;;;;;;;;8.04;67.95;99781.22;2097113;28;45703;-70
2022/02/14 03:54:22;;;;;;;;;;;;;;;8.14;67.03;99774.66;2097558;28;45524;-70
2022/02/14 03:55:23;;;;;;;;;;;;;;;8.15;67.71;99772.91;2096772;28;45246;-70
2022/02/14 03:56:27;;;;;;;;;;;;;;;8.18;66.89;99775.44;2097595;28;40857;-70
2022/02/14 03:57:29;;;;;;;;;;;;;;;8.15;67.17;99778.22;2098091;28;45392;-70
2022/02/14 03:58:30;;;;;;;;;;;;;;;8.14;67.12;99772.00;2097687;28;45062;-70
2022/02/14 03:59:35;;;;;;;;;;;;;;;8.14;67.69;99773.81;2097653;28;42311;-71
2022/02/14 04:00:37;;;;;;;;;;;;;;;8.12;67.51;99771.19;2097276;28;46722;-71
2022/02/14 04:01:42;;;;;;;;;;;;;;;8.13;67.87;99770.28;2096579;28;44487;-70
2022/02/14 04:02:44;;;;;;;;;;;;;;;8.19;67.17;99774.53;2097341;28;43903;-70
2022/02/14 04:03:46;;;;;;;;;;;;;;;8.17;67.44;99768.38;2097262;28;46566;-71
2022/02/14 04:04:47;;;;;;;;;;;;;;;8.20;67.83;99770.94;2098006;28;32941;-70
2022/02/14 04:05:49;;;;;;;;;;;;;;;8.20;67.87;99758.50;2097097;28;44478;-71
2022/02/14 04:06:50;;;;;;;;;;;;;;;8.23;67.01;99765.50;2097783;28;46222;-71
2022/02/14 04:07:57;;;;;;;;;;;;;;;8.22;66.97;99766.44;2097357;28;45642;-70
2022/02/14 04:08:59;;;;;;;;;;;;;;;8.19;67.09;99769.19;2098533;28;19933;-70
2022/02/14 04:10:00;;;;;;;;;;;;;;;8.20;67.89;99763.81;2097360;28;43133;-70
2022/02/14 04:11:02;;;;;;;;;;;;;;;8.25;67.24;99760.13;2097414;28;44904;-70
2022/02/14 04:12:04;;;;;;;;;;;;;;;8.23;67.36;99763.69;2097542;28;42591;-70
2022/02/14 04:13:05;;;;;;;;;;;;;;;8.26;67.45;99757.41;2097905;28;43833;-70
2022/02/14 04:14:07;;;;;;;;;;;;;;;8.29;66.90;99753.75;2097285;28;44929;-70
2022/02/14 04:15:11;;;;;;;;;;;;;;;8.26;67.08;99757.41;2097490;28;41743;-70
2022/02/14 04:16:12;;;;;;;;;;;;;;;8.23;67.37;99758.38;2096806;28;44984;-71
2022/02/14 04:17:14;;;;;;;;;;;;;;;8.26;67.65;99746.75;2096862;28;45532;-71
2022/02/14 04:18:15;;;;;;;;;;;;;;;8.24;66.92;99751.25;2097851;28;21417;-71
2022/02/14 04:19:17;;;;;;;;;;;;;;;8.30;67.34;99751.06;2097136;28;46730;-71
2022/02/14 04:20:19;;;;;;;;;;;;;;;8.31;67.80;99746.56;2097856;28;43516;-71
2022/02/14 04:21:20;;;;;;;;;;;;;;;8.34;67.22;99744.69;2097699;28;42629;-70
2022/02/14 04:22:22;;;;;;;;;;;;;;;8.33;66.82;99740.28;2096715;28;46429;-71
2022/02/14 04:23:24;;;;;;;;;;;;;;;8.31;67.77;99754.59;2097194;28;42899;-70
2022/02/14 04:24:25;;;;;;;;;;;;;;;8.30;66.85;99743.06;2097440;28;45298;-70
2022/02/14 04:25:27;;;;;;;;;;;;;;;8.28;67.32;99744.91;2098157;28;44409;-71
2022/02/14 04:26:28;;;;;;;;;;;;;;;8.36;67.36;99740.19;2097202;28;39458;-71
2022/02/14 04:27:30;;;;;;;;;;;;;;;8.33;67.12;99737.63;2096765;28;46801;-71
2022/02/14 04:28:33;;;;;;;;;;;;;;;8.33;67.68;99737.63;2096843;28;43094;-70
2022/02/14 04:29:35;;;;;;;;;;;;;;;8.32;67.22;99749.19;2097461;28;45495;-70
2022/02/14 04:30:36;;;;;;;;;;;;;;;8.35;67.10;99732.25;2097287;28;44797;-71
2022/02/14 04:31:38;;;;;;;;;;;;;;;8.40;66.60;99731.16;2097931;28;22750;-71
2022/02/14 04:32:40;;;;;;;;;;;;;;;8.40;67.27;99743.63;2096727;28;44925;-70
2022/02/14 04:33:42;;;;;;;;;;;;;;;8.43;67.10;99734.69;2097223;28;43105;-71
2022/02/14 04:34:44;;;;;;;;;;;;;;;8.38;66.77;99735.69;2097374;28;45414;-71
2022/02/14 04:35:45;;;;;;;;;;;;;;;8.41;67.55;99735.56;2096686;28;43474;-71
2022/02/14 04:36:49;;;;;;;;;;;;;;;8.44;66.87;99733.78;2096683;28;45845;-71
2022/02/14 04:37:54;;;;;;;;;;;;;;;8.42;67.08;99731.16;2097177;28;44255;-71
2022/02/14 04:38:56;;;;;;;;;;;;;;;8.43;66.95;99732.00;2088985;28;41938;-70
2022/02/14 04:40:00;;;;;;;;;;;;;;;8.40;67.17;99739.16;2088701;28;46177;-71
2022/02/14 04:41:02;;;;;;;;;;;;;;;8.36;67.19;99733.97;2088725;28;44729;-70
2022/02/14 04:42:04;;;;;;;;;;;;;;;8.34;67.93;99727.81;2089147;28;43948;-70
2022/02/14 04:43:07;;;;;;;;;;;;;;;8.31;67.62;99743.91;2088881;28;44487;-70
2022/02/14 04:44:10;;;;;;;;;;;;;;;8.29;67.95;99735.09;2089357;28;45555;-71
2022/02/14 04:45:12;;;;;;;;;;;;;;;8.31;67.76;99728.81;2095921;28;45640;-70
2022/02/14 04:46:13;;;;;;;;;;;;;;;8.33;68.10;99728.75;2096718;28;44915;-71
2022/02/14 04:47:15;;;;;;;;;;;;;;;8.34;67.94;99728.69;2097273;28;41822;-71
2022/02/14 04:48:16;;;;;;;;;;;;;;;8.39;66.91;99728.53;2097342;28;43841;-71
2022/02/14 04:49:18;;;;;;;;;;;;;;;8.37;67.69;99733.94;2097259;28;45495;-71
2022/02/14 04:50:19;;;;;;;;;;;;;;;8.39;67.97;99731.22;2097630;28;43266;-71
2022/02/14 04:51:21;;;;;;;;;;;;;;;8.45;66.81;99728.34;2096846;28;46348;-70
2022/02/14 04:52:23;;;;;;;;;;;;;;;8.43;66.87;99729.34;2096339;28;42965;-71
2022/02/14 04:53:24;;;;;;;;;;;;;;;8.41;66.95;99727.56;2096777;28;47028;-71
2022/02/14 04:54:26;;;;;;;;;;;;;;;8.40;66.79;99720.50;2097405;28;44356;-71
2022/02/14 04:55:27;;;;;;;;;;;;;;;8.41;67.65;99734.69;2097023;28;45378;-70
2022/02/14 04:56:30;;;;;;;;;;;;;;;8.35;67.52;99729.56;2097327;28;42366;-70
2022/02/14 04:57:31;;;;;;;;;;;;;;;8.36;67.69;99726.88;2096896;28;42385;-71
2022/02/14 04:58:33;;;;;;;;;;;;;;;8.34;67.29;99728.69;2097225;28;45450;-71
2022/02/14 04:59:35;;;;;;;;;;;;;;;8.33;67.77;99729.63;2096826;28;46411;-70
2022/02/14 05:00:36;;;;;;;;;;;;;;;8.31;68.03;99723.47;2096987;28;43851;-71
2022/02/14 05:01:38;;;;;;;;;;;;;;;8.29;67.81;99730.66;2096922;28;42344;-70
2022/02/14 05:02:40;;;;;;;;;;;;;;;8.28;67.58;99733.38;2097311;28;43419;-71
2022/02/14 05:03:42;;;;;;;;;;;;;;;8.25;68.05;99723.66;2096684;28;45611;-71
2022/02/14 05:04:43;;;;;;;;;;;;;;;8.20;67.68;99729.16;2097114;28;43694;-71
2022/02/14 05:05:45;;;;;;;;;;;;;;;8.20;67.98;99726.50;2097657;28;20888;-70
2022/02/14 05:06:46;;;;;;;;;;;;;;;8.17;67.93;99733.72;2097013;28;43187;-71
2022/02/14 05:07:50;;;;;;;;;;;;;;;8.14;68.30;99731.16;2096670;28;44401;-70
2022/02/14 05:08:52;;;;;;;;;;;;;;;8.17;68.54;99733.72;2097044;28;44098;-70
2022/02/14 05:09:53;;;;;;;;;;;;;;;8.18;68.36;99732.78;2096763;28;46304;-71
2022/02/14 05:10:57;;;;;;;;;;;;;;;8.16;68.19;99731.97;2097316;28;43087;-70
2022/02/14 05:11:59;;;;;;;;;;;;;;;8.16;67.79;99726.63;2096466;28;45660;-70
2022/02/14 05:13:03;;;;;;;;;;;;;;;8.15;68.48;99724.91;2098070;28;19925;-70
2022/02/14 05:14:05;;;;;;;;;;;;;;;8.12;68.52;99727.66;2096876;28;45877;-70
2022/02/14 05:15:08;;;;;;;;;;;;;;;8.14;68.24;99720.47;2097036;28;45065;-71
2022/02/14 05:16:09;;;;;;;;;;;;;;;8.18;67.36;99717.69;2097214;28;39862;-71
2022/02/14 05:17:11;;;;;;;;;;;;;;;8.15;67.55;99709.78;2096917;28;46021;-70
2022/02/14 05:18:12;;;;;;;;;;;;;;;8.15;67.51;99711.56;2096333;28;45628;-71
2022/02/14 05:19:14;;;;;;;;;;;;;;;8.15;67.34;99720.44;2096917;28;45147;-70
2022/02/14 05:20:15;;;;;;;;;;;;;;;8.11;67.72;99724.13;2096915;28;46210;-71
2022/02/14 05:21:17;;;;;;;;;;;;;;;8.10;67.89;99721.50;2096764;28;42109;-71
2022/02/14 05:22:18;;;;;;;;;;;;;;;8.07;68.39;99721.59;2097225;28;20493;-70
2022/02/14 05:23:20;;;;;;;;;;;;;;;8.05;68.24;99718.13;2096958;28;46923;-70
2022/02/14 05:24:21;;;;;;;;;;;;;;;8.00;68.42;99724.47;2096990;28;44168;-71
2022/02/14 05:25:24;;;;;;;;;;;;;;;7.95;68.49;99726.41;2096966;28;46224;-70
2022/02/14 05:26:26;;;;;;;;;;;;;;;7.95;69.06;99730.84;2097491;28;43384;-71
2022/02/14 05:27:27;;;;;;;;;;;;;;;7.90;68.59;99728.34;2097223;28;37223;-70
2022/02/14 05:28:29;;;;;;;;;;;;;;;7.85;69.08;99732.94;2096793;28;46280;-70